createdAt,value
2018-10-02T00:00:24.120Z,99610.91
2018-10-02T00:02:58.555Z,99610.06
2018-10-02T00:05:32.874Z,99608.70
2018-10-02T00:08:07.326Z,99598.48
2018-10-02T00:10:45.205Z,99607.94
2018-10-02T00:13:24.864Z,99602.55
2018-10-02T00:16:03.117Z,99604.17
2018-10-02T00:18:37.662Z,99601.48
2018-10-02T00:21:11.954Z,99603.03
2018-10-02T00:23:46.374Z,99596.06
2018-10-02T00:26:20.791Z,99604.44
2018-10-02T00:28:55.028Z,99602.83
2018-10-02T00:31:29.603Z,99593.38
2018-10-02T00:34:04.038Z,99591.75
2018-10-02T00:36:38.382Z,99591.48
2018-10-02T00:39:21.469Z,99590.14
2018-10-02T00:41:57.917Z,99593.38
2018-10-02T00:44:32.801Z,99582.04
2018-10-02T00:47:07.508Z,99583.66
2018-10-02T00:49:49.351Z,99580.70
2018-10-02T00:52:31.960Z,99578.47
2018-10-02T00:55:16.863Z,99574.39
2018-10-02T00:57:52.295Z,99568.20
2018-10-02T01:00:26.773Z,99568.23
2018-10-02T01:03:01.124Z,99558.28
2018-10-02T01:05:37.550Z,99562.88
2018-10-02T01:08:12.470Z,99553.97
2018-10-02T01:10:53.103Z,99554.23
2018-10-02T01:16:35.639Z,99559.30
2018-10-02T01:19:09.871Z,99559.84
2018-10-02T01:24:44.046Z,99569.82
2018-10-02T01:27:18.448Z,99572.25
2018-10-02T01:29:56.469Z,99571.69
2018-10-02T01:32:30.886Z,99566.84
2018-10-02T01:35:05.322Z,99557.41
2018-10-02T01:37:40.164Z,99563.34
2018-10-02T01:40:27.189Z,99564.94
2018-10-02T01:43:07.602Z,99560.07
2018-10-02T01:45:41.995Z,99563.06
2018-10-02T01:48:16.481Z,99554.17
2018-10-02T01:50:50.759Z,99547.16
2018-10-02T01:53:25.087Z,99552.02
2018-10-02T01:55:59.644Z,99543.66
2018-10-02T01:58:36.124Z,99545.00
2018-10-02T02:01:11.275Z,99533.94
2018-10-02T02:03:45.685Z,99532.05
2018-10-02T02:06:20.248Z,99528.54
2018-10-02T02:08:54.850Z,99536.09
2018-10-02T02:11:29.611Z,99524.22
2018-10-02T02:14:03.999Z,99535.55
2018-10-02T02:16:38.395Z,99525.02
2018-10-02T02:19:12.771Z,99527.45
2018-10-02T02:21:47.224Z,99519.63
2018-10-02T02:24:21.533Z,99514.50
2018-10-02T02:26:55.845Z,99516.39
2018-10-02T02:29:30.219Z,99516.61
2018-10-02T02:32:04.480Z,99508.83
2018-10-02T02:34:38.853Z,99518.28
2018-10-02T02:37:13.287Z,99522.88
2018-10-02T02:39:47.711Z,99526.10
2018-10-02T02:42:22.115Z,99519.91
2018-10-02T02:44:56.975Z,99513.71
2018-10-02T02:47:36.744Z,99508.32
2018-10-02T02:50:17.304Z,99499.95
2018-10-02T02:52:57.097Z,99494.56
2018-10-02T02:55:31.439Z,99487.00
2018-10-02T02:58:05.719Z,99487.55
2018-10-02T03:00:40.108Z,99486.22
2018-10-02T03:03:14.483Z,99477.31
2018-10-02T03:05:48.860Z,99479.17
2018-10-02T03:08:23.191Z,99486.19
2018-10-02T03:10:57.575Z,99477.02
2018-10-02T03:13:32.017Z,99468.92
2018-10-02T03:16:06.427Z,99468.66
2018-10-02T03:18:40.867Z,99474.86
2018-10-02T03:21:15.267Z,99460.56
2018-10-02T03:23:49.616Z,99457.86
2018-10-02T03:26:24.001Z,99457.32
2018-10-02T03:28:58.297Z,99456.24
2018-10-02T03:31:32.646Z,99444.64
2018-10-02T03:34:20.203Z,99445.45
2018-10-02T03:36:54.530Z,99447.06
2018-10-02T03:39:29.284Z,99456.23
2018-10-02T03:42:07.200Z,99448.15
2018-10-02T03:44:41.504Z,99445.74
2018-10-02T03:47:15.886Z,99450.30
2018-10-02T03:49:55.779Z,99450.34
2018-10-02T03:52:30.076Z,99446.80
2018-10-02T03:55:05.207Z,99442.50
2018-10-02T03:57:39.524Z,99430.89
2018-10-02T04:00:13.995Z,99429.55
2018-10-02T04:02:48.415Z,99433.86
2018-10-02T04:05:22.721Z,99429.00
2018-10-02T04:07:57.174Z,99418.20
2018-10-02T04:10:31.988Z,99420.91
2018-10-02T04:13:06.750Z,99427.64
2018-10-02T04:15:41.172Z,99431.16
2018-10-02T04:18:15.692Z,99419.54
2018-10-02T04:23:52.727Z,99398.48
2018-10-02T04:26:26.967Z,99386.06
2018-10-02T04:29:01.776Z,99392.81
2018-10-02T04:31:37.526Z,99396.84
2018-10-02T04:34:11.776Z,99393.88
2018-10-02T04:36:46.331Z,99390.39
2018-10-02T04:39:20.605Z,99379.59
2018-10-02T04:41:55.651Z,99373.65
2018-10-02T04:44:30.067Z,99356.91
2018-10-02T04:47:04.516Z,99351.24
2018-10-02T04:49:38.987Z,99341.50
2018-10-02T04:52:13.636Z,99339.37
2018-10-02T04:54:48.371Z,99338.00
2018-10-02T04:57:22.717Z,99345.03
2018-10-02T04:59:57.398Z,99351.77
2018-10-02T05:02:31.621Z,99347.97
2018-10-02T05:05:06.039Z,99356.37
2018-10-02T05:07:40.500Z,99354.47
2018-10-02T05:10:14.894Z,99366.34
2018-10-02T05:12:49.236Z,99364.73
2018-10-02T05:15:23.654Z,99357.41
2018-10-02T05:17:58.335Z,99356.31
2018-10-02T05:20:32.760Z,99354.16
2018-10-02T05:23:07.208Z,99350.08
2018-10-02T05:25:42.538Z,99355.23
2018-10-02T05:28:16.814Z,99343.63
2018-10-02T05:30:51.432Z,99342.78
2018-10-02T05:33:25.954Z,99336.05
2018-10-02T05:36:00.857Z,99348.17
2018-10-02T05:38:35.339Z,99344.97
2018-10-02T05:41:11.100Z,99342.23
2018-10-02T05:43:50.049Z,99333.05
2018-10-02T05:46:24.523Z,99323.06
2018-10-02T05:49:18.757Z,99314.96
2018-10-02T05:52:04.656Z,99326.30
2018-10-02T05:54:38.957Z,99333.02
2018-10-02T05:57:13.455Z,99332.25
2018-10-02T05:59:47.807Z,99338.70
2018-10-02T06:02:24.873Z,99329.77
2018-10-02T06:04:59.514Z,99330.33
2018-10-02T06:07:33.808Z,99330.33
2018-10-02T06:10:09.173Z,99321.95
2018-10-02T06:12:43.540Z,99321.69
2018-10-02T06:15:17.883Z,99316.00
2018-10-02T06:23:48.512Z,99292.48
2018-10-02T06:26:22.972Z,99296.31
2018-10-02T06:28:57.232Z,99292.80
2018-10-02T06:31:31.756Z,99278.49
2018-10-02T06:34:06.153Z,99271.77
2018-10-02T06:36:41.757Z,99275.53
2018-10-02T06:39:16.407Z,99275.53
2018-10-02T06:41:52.726Z,99275.23
2018-10-02T06:44:27.943Z,99280.64
2018-10-02T06:47:02.099Z,99286.60
2018-10-02T06:49:37.759Z,99288.77
2018-10-02T06:52:12.827Z,99293.33
2018-10-02T06:54:47.039Z,99300.95
2018-10-02T06:57:21.562Z,99299.63
2018-10-02T06:59:56.186Z,99288.27
2018-10-02T07:02:31.212Z,99285.80
2018-10-02T07:05:05.863Z,99289.05
2018-10-02T07:07:56.037Z,99272.09
2018-10-02T07:10:30.505Z,99269.86
2018-10-02T07:13:05.021Z,99264.44
2018-10-02T07:18:38.832Z,99263.91
2018-10-02T07:21:16.773Z,99254.19
2018-10-02T07:23:51.143Z,99253.61
2018-10-02T07:26:25.644Z,99261.73
2018-10-02T07:29:00.582Z,99256.06
2018-10-02T07:31:35.096Z,99246.80
2018-10-02T07:34:10.154Z,99234.39
2018-10-02T07:36:45.033Z,99228.48
2018-10-02T07:39:19.744Z,99234.70
2018-10-02T07:41:54.526Z,99239.77
2018-10-02T07:44:29.072Z,99232.23
2018-10-02T07:47:03.665Z,99227.59
2018-10-02T07:49:38.158Z,99227.54
2018-10-02T07:52:13.357Z,99225.64
2018-10-02T07:54:48.121Z,99219.93
2018-10-02T07:57:22.826Z,99233.16
2018-10-02T07:59:57.643Z,99239.07
2018-10-02T08:02:32.317Z,99239.30
2018-10-02T08:05:06.954Z,99233.95
2018-10-02T08:07:41.296Z,99238.05
2018-10-02T08:10:15.932Z,99247.00
2018-10-02T08:12:50.497Z,99244.37
2018-10-02T08:15:25.092Z,99251.91
2018-10-02T08:17:59.695Z,99251.72
2018-10-02T08:20:34.192Z,99258.23
2018-10-02T08:23:08.747Z,99252.52
2018-10-02T08:25:47.543Z,99229.55
2018-10-02T08:28:22.409Z,99229.00
2018-10-02T08:30:57.585Z,99223.09
2018-10-02T08:33:32.275Z,99233.11
2018-10-02T08:36:06.946Z,99235.97
2018-10-02T08:38:41.397Z,99232.21
2018-10-02T08:41:15.897Z,99237.31
2018-10-02T08:43:50.738Z,99246.83
2018-10-02T08:46:25.383Z,99249.97
2018-10-02T08:49:00.077Z,99251.88
2018-10-02T08:54:34.612Z,99236.48
2018-10-02T08:57:09.708Z,99240.51
2018-10-02T08:59:46.123Z,99241.85
2018-10-02T09:02:20.724Z,99251.05
2018-10-02T09:04:57.382Z,99250.48
2018-10-02T09:07:43.147Z,99236.02
2018-10-02T09:10:18.203Z,99225.32
2018-10-02T09:12:53.079Z,99218.25
2018-10-02T09:15:27.582Z,99214.33
2018-10-02T09:18:03.100Z,99210.27
2018-10-02T09:20:37.535Z,99203.53
2018-10-02T09:23:12.164Z,99204.22
2018-10-02T09:25:46.895Z,99199.58
2018-10-02T09:28:21.511Z,99211.52
2018-10-02T09:31:01.402Z,99215.70
2018-10-02T09:33:45.413Z,99209.88
2018-10-02T09:36:35.585Z,99213.88
2018-10-02T09:39:15.345Z,99209.75
2018-10-02T09:41:55.558Z,99213.50
2018-10-02T09:44:30.050Z,99208.92
2018-10-02T09:47:04.716Z,99198.96
2018-10-02T09:49:39.474Z,99209.86
2018-10-02T09:55:23.656Z,99195.97
2018-10-02T09:58:12.884Z,99196.30
2018-10-02T10:00:54.823Z,99197.62
2018-10-02T10:03:35.596Z,99198.91
2018-10-02T10:06:10.503Z,99207.33
2018-10-02T10:08:45.490Z,99208.08
2018-10-02T10:11:19.993Z,99209.66
2018-10-02T10:13:54.450Z,99201.63
2018-10-02T10:16:29.158Z,99202.49
2018-10-02T10:19:08.657Z,99196.53
2018-10-02T10:21:44.231Z,99194.05
2018-10-02T10:24:18.865Z,99192.95
2018-10-02T10:26:53.383Z,99178.56
2018-10-02T10:29:28.107Z,99182.64
2018-10-02T10:32:02.740Z,99185.66
2018-10-02T10:34:37.317Z,99179.92
2018-10-02T10:37:11.752Z,99177.19
2018-10-02T10:39:46.623Z,99165.27
2018-10-02T10:42:21.184Z,99161.47
2018-10-02T10:44:55.788Z,99155.80
2018-10-02T10:47:30.389Z,99162.09
2018-10-02T10:50:04.995Z,99157.44
2018-10-02T10:52:39.743Z,99159.69
2018-10-02T10:55:29.272Z,99116.36
2018-10-02T10:58:04.040Z,99160.40
2018-10-02T11:00:38.557Z,99158.11
2018-10-02T11:03:17.140Z,99154.35
2018-10-02T11:05:51.801Z,99141.22
2018-10-02T11:08:26.478Z,99144.73
2018-10-02T11:11:00.929Z,99152.37
2018-10-02T11:13:35.612Z,99140.73
2018-10-02T11:16:10.188Z,99146.39
2018-10-02T11:18:44.722Z,99138.94
2018-10-02T11:21:19.444Z,99136.04
2018-10-02T11:23:54.281Z,99151.42
2018-10-02T11:26:28.900Z,99145.27
2018-10-02T11:29:03.903Z,99158.37
2018-10-02T11:31:38.678Z,99148.25
2018-10-02T11:34:13.346Z,99147.34
2018-10-02T11:36:47.853Z,99147.75
2018-10-02T11:39:23.847Z,99136.29
2018-10-02T11:42:07.699Z,99135.36
2018-10-02T11:44:42.187Z,99138.22
2018-10-02T11:47:16.848Z,99124.29
2018-10-02T11:49:51.546Z,99130.43
2018-10-02T11:52:26.117Z,99134.75
2018-10-02T11:55:00.689Z,99120.46
2018-10-02T11:57:35.377Z,99112.77
2018-10-02T12:00:10.057Z,99103.46
2018-10-02T12:02:44.573Z,99107.78
2018-10-02T12:05:19.041Z,99109.34
2018-10-02T12:07:53.780Z,99104.60
2018-10-02T12:10:28.339Z,99098.11
2018-10-02T12:13:02.902Z,99110.28
2018-10-02T12:15:37.490Z,99105.95
2018-10-02T12:18:11.952Z,99104.70
2018-10-02T12:20:46.601Z,99100.38
2018-10-02T12:23:21.065Z,99103.35
2018-10-02T12:25:55.648Z,99101.73
2018-10-02T12:28:30.207Z,99095.40
2018-10-02T12:31:04.919Z,99104.53
2018-10-02T12:33:39.436Z,99092.69
2018-10-02T12:36:14.255Z,99088.05
2018-10-02T12:38:48.976Z,99076.54
2018-10-02T12:41:23.539Z,99085.75
2018-10-02T12:43:58.093Z,99090.70
2018-10-02T12:46:32.952Z,99086.30
2018-10-02T12:49:07.560Z,99074.72
2018-10-02T12:51:42.143Z,99077.80
2018-10-02T12:54:16.970Z,99083.77
2018-10-02T12:56:51.736Z,99074.69
2018-10-02T12:59:26.337Z,99065.88
2018-10-02T13:02:00.773Z,99076.25
2018-10-02T13:04:35.240Z,99080.56
2018-10-02T13:07:09.745Z,99091.49
2018-10-02T13:09:44.293Z,99081.50
2018-10-02T13:12:19.109Z,99082.30
2018-10-02T13:14:53.750Z,99089.34
2018-10-02T13:17:28.345Z,99082.72
2018-10-02T13:20:03.095Z,99087.30
2018-10-02T13:22:37.542Z,99092.88
2018-10-02T13:25:12.062Z,99095.17
2018-10-02T13:27:46.657Z,99100.03
2018-10-02T13:30:21.105Z,99095.39
2018-10-02T13:32:55.838Z,99087.18
2018-10-02T13:35:30.494Z,99086.05
2018-10-02T13:38:05.154Z,99087.06
2018-10-02T13:40:39.781Z,99086.66
2018-10-02T13:43:14.664Z,99090.16
2018-10-02T13:45:49.484Z,99091.23
2018-10-02T13:48:24.020Z,99088.90
2018-10-02T13:50:58.496Z,99094.03
2018-10-02T13:53:33.122Z,99087.63
2018-10-02T13:56:07.565Z,99094.69
2018-10-02T13:58:48.549Z,99102.20
2018-10-02T14:01:23.282Z,99100.20
2018-10-02T14:03:57.664Z,99114.88
2018-10-02T14:06:32.036Z,99113.97
2018-10-02T14:09:07.941Z,99111.52
2018-10-02T14:11:42.534Z,99113.72
2018-10-02T14:14:16.973Z,99109.19
2018-10-02T14:16:51.349Z,99109.66
2018-10-02T14:19:25.780Z,99101.56
2018-10-02T14:22:00.394Z,99106.76
2018-10-02T14:24:35.089Z,99097.74
2018-10-02T14:27:10.345Z,99104.84
2018-10-02T14:29:44.812Z,99105.55
2018-10-02T14:32:19.323Z,99115.30
2018-10-02T14:34:53.982Z,99101.66
2018-10-02T14:37:28.569Z,99104.61
2018-10-02T14:40:03.129Z,99108.38
2018-10-02T14:42:37.649Z,99105.50
2018-10-02T14:45:12.281Z,99101.39
2018-10-02T14:47:46.824Z,99101.63
2018-10-02T14:50:21.266Z,99097.93
2018-10-02T14:52:55.752Z,99095.02
2018-10-02T14:55:30.369Z,99103.94
2018-10-02T14:58:04.752Z,99098.36
2018-10-02T15:00:39.192Z,99109.31
2018-10-02T15:03:13.744Z,99113.81
2018-10-02T15:05:48.457Z,99100.02
2018-10-02T15:08:22.981Z,99105.63
2018-10-02T15:10:57.455Z,99098.98
2018-10-02T15:13:32.061Z,99089.59
2018-10-02T15:16:06.536Z,99093.20
2018-10-02T15:18:41.077Z,99097.03
2018-10-02T15:21:15.624Z,99099.66
2018-10-02T15:23:50.124Z,99098.41
2018-10-02T15:26:25.304Z,99092.22
2018-10-02T15:28:59.820Z,99095.37
2018-10-02T15:31:34.349Z,99104.95
2018-10-02T15:34:08.953Z,99097.03
2018-10-02T15:36:43.360Z,99098.70
2018-10-02T15:39:17.780Z,99109.86
2018-10-02T15:41:52.265Z,99107.21
2018-10-02T15:44:33.930Z,99112.17
2018-10-02T15:47:08.572Z,99100.22
2018-10-02T15:49:43.272Z,99115.55
2018-10-02T15:52:17.801Z,99115.88
2018-10-02T15:54:52.220Z,99107.20
2018-10-02T15:57:26.824Z,99106.32
2018-10-02T16:00:01.299Z,99106.16
2018-10-02T16:02:35.752Z,99118.28
2018-10-02T16:05:10.271Z,99116.58
2018-10-02T16:07:44.835Z,99106.86
2018-10-02T16:10:20.111Z,99107.11
2018-10-02T16:12:54.715Z,99112.89
2018-10-02T16:15:29.421Z,99111.30
2018-10-02T16:18:04.174Z,99115.67
2018-10-02T16:20:38.805Z,99114.89
2018-10-02T16:23:13.408Z,99109.27
2018-10-02T16:25:47.848Z,99114.66
2018-10-02T16:28:22.321Z,99118.50
2018-10-02T16:30:57.041Z,99120.84
2018-10-02T16:33:31.733Z,99127.73
2018-10-02T16:36:06.469Z,99129.56
2018-10-02T16:38:41.105Z,99144.59
2018-10-02T16:41:15.749Z,99133.73
2018-10-02T16:43:50.381Z,99138.89
2018-10-02T16:46:24.949Z,99140.00
2018-10-02T16:48:59.594Z,99150.04
2018-10-02T16:51:34.008Z,99153.16
2018-10-02T16:54:08.540Z,99149.70
2018-10-02T16:56:43.299Z,99153.55
2018-10-02T16:59:17.960Z,99156.86
2018-10-02T17:01:52.609Z,99164.73
2018-10-02T17:04:27.247Z,99170.84
2018-10-02T17:07:01.784Z,99168.03
2018-10-02T17:09:36.163Z,99160.41
2018-10-02T17:12:10.928Z,99168.73
2018-10-02T17:14:45.408Z,99174.12
2018-10-02T17:17:19.768Z,99181.16
2018-10-02T17:19:54.152Z,99182.52
2018-10-02T17:22:28.595Z,99186.77
2018-10-02T17:25:03.496Z,99195.98
2018-10-02T17:30:39.605Z,99201.94
2018-10-02T17:33:14.301Z,99207.59
2018-10-02T17:35:56.757Z,99213.24
2018-10-02T17:38:31.818Z,99217.02
2018-10-02T17:41:06.722Z,99214.69
2018-10-02T17:43:41.412Z,99216.59
2018-10-02T17:46:19.613Z,99224.99
2018-10-02T17:48:54.442Z,99227.66
2018-10-02T17:51:35.740Z,99234.05
2018-10-02T17:54:10.180Z,99239.77
2018-10-02T17:56:47.988Z,99245.83
2018-10-02T17:59:38.769Z,99247.61
2018-10-02T18:02:13.245Z,99257.31
2018-10-02T18:04:47.763Z,99251.95
2018-10-02T18:07:22.321Z,99258.07
2018-10-02T18:10:08.704Z,99259.80
2018-10-02T18:12:43.341Z,99254.00
2018-10-02T18:15:17.952Z,99258.07
2018-10-02T18:17:52.424Z,99253.73
2018-10-02T18:20:27.019Z,99258.23
2018-10-02T18:23:01.657Z,99259.27
2018-10-02T18:25:36.225Z,99262.16
2018-10-02T18:31:10.200Z,99266.69
2018-10-02T18:33:44.850Z,99269.55
2018-10-02T18:39:32.107Z,99271.33
2018-10-02T18:42:10.052Z,99273.27
2018-10-02T18:44:45.098Z,99276.22
2018-10-02T18:47:19.780Z,99280.48
2018-10-02T18:49:54.458Z,99282.62
2018-10-02T18:52:35.648Z,99287.86
2018-10-02T18:55:31.022Z,99280.56
2018-10-02T18:58:05.632Z,99285.42
2018-10-02T19:00:40.240Z,99284.65
2018-10-02T19:03:14.776Z,99283.11
2018-10-02T19:05:49.241Z,99288.08
2018-10-02T19:08:45.907Z,99277.77
2018-10-02T19:11:37.144Z,99282.38
2018-10-02T19:14:30.539Z,99281.95
2018-10-02T19:17:05.439Z,99289.91
2018-10-02T19:19:45.223Z,99294.22
2018-10-02T19:22:42.331Z,99296.34
2018-10-02T19:25:22.920Z,99302.66
2018-10-02T19:27:57.344Z,99288.28
2018-10-02T19:30:37.175Z,99292.37
2018-10-02T19:33:12.561Z,99303.54
2018-10-02T19:35:48.304Z,99306.00
2018-10-02T19:38:28.178Z,99295.69
2018-10-02T19:41:02.749Z,99315.75
2018-10-02T19:43:37.953Z,99313.07
2018-10-02T19:46:17.788Z,99308.16
2018-10-02T19:48:52.365Z,99324.33
2018-10-02T19:51:46.273Z,99312.45
2018-10-02T19:54:25.646Z,99311.52
2018-10-02T19:57:00.141Z,99307.92
2018-10-02T19:59:36.616Z,99314.79
2018-10-02T20:02:11.217Z,99318.88
2018-10-02T20:04:45.905Z,99323.39
2018-10-02T20:07:20.553Z,99323.48
2018-10-02T20:09:55.065Z,99319.27
2018-10-02T20:12:29.649Z,99311.09
2018-10-02T20:15:04.369Z,99307.37
2018-10-02T20:17:39.065Z,99320.49
2018-10-02T20:20:13.600Z,99306.64
2018-10-02T20:22:48.210Z,99308.00
2018-10-02T20:25:22.779Z,99312.19
2018-10-02T20:27:57.180Z,99316.98
2018-10-02T20:30:32.889Z,99320.98
2018-10-02T20:33:07.496Z,99320.18
2018-10-02T20:35:41.940Z,99316.98
2018-10-02T20:38:16.452Z,99313.07
2018-10-02T20:40:53.987Z,99320.62
2018-10-02T20:43:28.702Z,99324.39
2018-10-02T20:46:03.242Z,99328.52
2018-10-02T20:48:37.957Z,99324.08
2018-10-02T20:51:12.464Z,99331.81
2018-10-02T20:53:47.037Z,99327.42
2018-10-02T20:56:21.637Z,99335.73
2018-10-02T20:58:56.449Z,99329.91
2018-10-02T21:01:31.048Z,99329.75
2018-10-02T21:04:08.121Z,99330.65
2018-10-02T21:06:44.823Z,99328.30
2018-10-02T21:09:20.576Z,99328.73
2018-10-02T21:11:55.056Z,99322.85
2018-10-02T21:14:36.252Z,99309.23
2018-10-02T21:17:15.330Z,99310.46
2018-10-02T21:19:49.932Z,99309.37
2018-10-02T21:22:24.358Z,99312.00
2018-10-02T21:24:58.792Z,99320.53
2018-10-02T21:27:33.301Z,99312.36
2018-10-02T21:30:07.824Z,99317.06
2018-10-02T21:32:42.357Z,99324.55
2018-10-02T21:35:16.877Z,99323.05
2018-10-02T21:37:51.641Z,99318.98
2018-10-02T21:40:26.245Z,99323.70
2018-10-02T21:43:00.660Z,99323.84
2018-10-02T21:45:35.180Z,99329.27
2018-10-02T21:48:09.944Z,99328.33
2018-10-02T21:50:44.656Z,99320.28
2018-10-02T21:53:19.266Z,99328.01
2018-10-02T21:55:53.996Z,99328.08
2018-10-02T21:58:28.629Z,99328.88
2018-10-02T22:01:04.576Z,99325.81
2018-10-02T22:03:40.214Z,99324.23
2018-10-02T22:06:14.767Z,99320.28
2018-10-02T22:08:49.483Z,99323.73
2018-10-02T22:11:24.026Z,99322.34
2018-10-02T22:13:58.605Z,99320.91
2018-10-02T22:16:33.145Z,99322.91
2018-10-02T22:19:07.876Z,99328.14
2018-10-02T22:21:42.785Z,99330.42
2018-10-02T22:24:17.403Z,99327.00
2018-10-02T22:26:52.244Z,99331.42
2018-10-02T22:29:26.829Z,99330.98
2018-10-02T22:32:01.321Z,99330.17
2018-10-02T22:34:35.885Z,99320.95
2018-10-02T22:37:10.412Z,99313.47
2018-10-02T22:39:45.268Z,99305.96
2018-10-02T22:42:19.867Z,99303.64
2018-10-02T22:44:54.514Z,99297.78
2018-10-02T22:47:29.289Z,99299.42
2018-10-02T22:50:05.144Z,99297.59
2018-10-02T22:52:39.672Z,99303.92
2018-10-02T22:55:14.424Z,99303.22
2018-10-02T22:57:49.100Z,99291.02
2018-10-02T23:00:23.913Z,99304.64
2018-10-02T23:02:58.652Z,99301.43
2018-10-02T23:05:34.779Z,99302.86
2018-10-02T23:08:09.288Z,99303.17
2018-10-02T23:10:44.001Z,99308.00
2018-10-02T23:13:22.776Z,99304.05
2018-10-02T23:15:57.730Z,99306.09
2018-10-02T23:18:32.448Z,99308.44
2018-10-02T23:21:07.092Z,99307.87
2018-10-02T23:23:41.601Z,99316.28
2018-10-02T23:26:16.189Z,99311.84
2018-10-02T23:28:50.722Z,99313.00
2018-10-02T23:31:25.271Z,99321.24
2018-10-02T23:33:59.808Z,99313.16
2018-10-02T23:36:34.468Z,99315.26
2018-10-02T23:39:09.569Z,99320.28
2018-10-02T23:41:44.696Z,99323.92
2018-10-02T23:44:19.312Z,99325.18
2018-10-02T23:49:52.885Z,99335.17
2018-10-02T23:52:27.734Z,99336.89
2018-10-02T23:55:02.437Z,99329.23
2018-10-02T23:57:37.059Z,99334.33
